Terminal Aerodrome Forecast
Issued by NWS

Home | Current Version | Previous Version | Graphics & Text | Print | Product List | Glossary On
Versions: 1 2 3 4 5 6 7 8 9 10 11 12 13 14 15
000
FTUS43 KICT 011140
TAFRSL
TAF
KRSL 011140Z 0112/0212 18011KT P6SM SKC
     FM011400 17012KT P6SM SCT006
     FM011600 17016G23KT P6SM SCT035
     FM011800 18020G30KT P6SM SCT060
     FM020100 18017G26KT P6SM SCT050 BKN150
     FM020400 35012KT P6SM BKN120=

USA.gov is the U.S. government's official web portal to all federal, state and local government web resources and services.